sensor_id;sensor_type;location;lat;lon;timestamp;pressure;altitude;pressure_sealevel;temperature
18219;BMP180;9234;49.344;11.120;2023-04-15T00:00:56;96460.00;;;7.00
18219;BMP180;9234;49.344;11.120;2023-04-15T00:03:25;96468.00;;;7.00
18219;BMP180;9234;49.344;11.120;2023-04-15T00:05:54;96463.00;;;7.00
18219;BMP180;9234;49.344;11.120;2023-04-15T00:08:23;96472.00;;;7.00
18219;BMP180;9234;49.344;11.120;2023-04-15T00:10:52;96457.00;;;7.00
18219;BMP180;9234;49.344;11.120;2023-04-15T00:13:21;96455.00;;;7.00
18219;BMP180;9234;49.344;11.120;2023-04-15T00:15:49;96453.00;;;7.00
18219;BMP180;9234;49.344;11.120;2023-04-15T00:18:18;96458.00;;;7.00
18219;BMP180;9234;49.344;11.120;2023-04-15T00:20:46;96458.00;;;7.00
18219;BMP180;9234;49.344;11.120;2023-04-15T00:23:14;96469.00;;;7.00
18219;BMP180;9234;49.344;11.120;2023-04-15T00:25:42;96464.00;;;7.00
18219;BMP180;9234;49.344;11.120;2023-04-15T00:28:12;96460.00;;;7.00
18219;BMP180;9234;49.344;11.120;2023-04-15T00:30:42;96447.00;;;7.00
18219;BMP180;9234;49.344;11.120;2023-04-15T00:33:12;96449.00;;;7.00
18219;BMP180;9234;49.344;11.120;2023-04-15T00:35:40;96451.00;;;7.00
18219;BMP180;9234;49.344;11.120;2023-04-15T00:38:09;96442.00;;;7.00
18219;BMP180;9234;49.344;11.120;2023-04-15T00:40:37;96441.00;;;7.10
18219;BMP180;9234;49.344;11.120;2023-04-15T00:43:06;96442.00;;;7.10
18219;BMP180;9234;49.344;11.120;2023-04-15T00:45:35;96437.00;;;7.10
18219;BMP180;9234;49.344;11.120;2023-04-15T00:48:05;96430.00;;;7.10
18219;BMP180;9234;49.344;11.120;2023-04-15T00:50:33;96437.00;;;7.10
18219;BMP180;9234;49.344;11.120;2023-04-15T00:53:01;96432.00;;;7.10
18219;BMP180;9234;49.344;11.120;2023-04-15T00:55:29;96424.00;;;7.10
18219;BMP180;9234;49.344;11.120;2023-04-15T00:57:57;96433.00;;;7.10
18219;BMP180;9234;49.344;11.120;2023-04-15T01:00:26;96438.00;;;7.10
18219;BMP180;9234;49.344;11.120;2023-04-15T01:02:56;96428.00;;;7.10
18219;BMP180;9234;49.344;11.120;2023-04-15T01:05:25;96418.00;;;7.10
18219;BMP180;9234;49.344;11.120;2023-04-15T01:07:54;96420.00;;;7.20
18219;BMP180;9234;49.344;11.120;2023-04-15T01:10:22;96419.00;;;7.10
18219;BMP180;9234;49.344;11.120;2023-04-15T01:12:51;96422.00;;;7.20
18219;BMP180;9234;49.344;11.120;2023-04-15T01:15:20;96423.00;;;7.20
18219;BMP180;9234;49.344;11.120;2023-04-15T01:17:49;96423.00;;;7.20
18219;BMP180;9234;49.344;11.120;2023-04-15T01:20:19;96422.00;;;7.20
18219;BMP180;9234;49.344;11.120;2023-04-15T01:22:48;96421.00;;;7.20
18219;BMP180;9234;49.344;11.120;2023-04-15T01:25:19;96422.00;;;7.10
18219;BMP180;9234;49.344;11.120;2023-04-15T01:27:51;96425.00;;;7.10
18219;BMP180;9234;49.344;11.120;2023-04-15T01:30:20;96407.00;;;7.10
18219;BMP180;9234;49.344;11.120;2023-04-15T01:32:48;96415.00;;;7.10
18219;BMP180;9234;49.344;11.120;2023-04-15T01:35:18;96408.00;;;7.10
18219;BMP180;9234;49.344;11.120;2023-04-15T01:37:47;96398.00;;;7.10
18219;BMP180;9234;49.344;11.120;2023-04-15T01:40:16;96403.00;;;7.10
18219;BMP180;9234;49.344;11.120;2023-04-15T01:42:45;96412.00;;;7.10
18219;BMP180;9234;49.344;11.120;2023-04-15T01:45:16;96419.00;;;7.10
18219;BMP180;9234;49.344;11.120;2023-04-15T01:47:44;96409.00;;;7.10
18219;BMP180;9234;49.344;11.120;2023-04-15T01:50:12;96401.00;;;7.10
18219;BMP180;9234;49.344;11.120;2023-04-15T01:52:41;96399.00;;;7.10
18219;BMP180;9234;49.344;11.120;2023-04-15T01:55:10;96409.00;;;7.10
18219;BMP180;9234;49.344;11.120;2023-04-15T01:57:39;96408.00;;;7.10
18219;BMP180;9234;49.344;11.120;2023-04-15T02:00:09;96396.00;;;7.10
18219;BMP180;9234;49.344;11.120;2023-04-15T02:02:42;96401.00;;;7.10
18219;BMP180;9234;49.344;11.120;2023-04-15T02:05:10;96394.00;;;7.10
18219;BMP180;9234;49.344;11.120;2023-04-15T02:07:39;96401.00;;;7.10
18219;BMP180;9234;49.344;11.120;2023-04-15T02:10:09;96403.00;;;7.10
18219;BMP180;9234;49.344;11.120;2023-04-15T02:12:37;96397.00;;;7.10
18219;BMP180;9234;49.344;11.120;2023-04-15T02:15:08;96390.00;;;7.10
18219;BMP180;9234;49.344;11.120;2023-04-15T02:17:36;96407.00;;;7.10
18219;BMP180;9234;49.344;11.120;2023-04-15T02:20:08;96393.00;;;7.10
18219;BMP180;9234;49.344;11.120;2023-04-15T02:22:36;96402.00;;;7.10
18219;BMP180;9234;49.344;11.120;2023-04-15T02:25:06;96400.00;;;7.10
18219;BMP180;9234;49.344;11.120;2023-04-15T02:27:35;96394.00;;;7.10
18219;BMP180;9234;49.344;11.120;2023-04-15T02:30:05;96395.00;;;7.10
18219;BMP180;9234;49.344;11.120;2023-04-15T02:32:34;96399.00;;;7.10
18219;BMP180;9234;49.344;11.120;2023-04-15T02:35:07;96407.00;;;7.10
18219;BMP180;9234;49.344;11.120;2023-04-15T02:37:36;96412.00;;;7.10
18219;BMP180;9234;49.344;11.120;2023-04-15T02:40:10;96408.00;;;7.10
18219;BMP180;9234;49.344;11.120;2023-04-15T02:42:39;96421.00;;;7.10
18219;BMP180;9234;49.344;11.120;2023-04-15T02:45:11;96410.00;;;7.10
18219;BMP180;9234;49.344;11.120;2023-04-15T02:47:40;96412.00;;;7.10
18219;BMP180;9234;49.344;11.120;2023-04-15T02:50:12;96399.00;;;7.20
18219;BMP180;9234;49.344;11.120;2023-04-15T02:52:42;96401.00;;;7.10
18219;BMP180;9234;49.344;11.120;2023-04-15T02:55:10;96389.00;;;7.20
18219;BMP180;9234;49.344;11.120;2023-04-15T02:57:39;96401.00;;;7.20
18219;BMP180;9234;49.344;11.120;2023-04-15T03:00:10;96395.00;;;7.20
18219;BMP180;9234;49.344;11.120;2023-04-15T03:02:45;96388.00;;;7.20
18219;BMP180;9234;49.344;11.120;2023-04-15T03:05:15;96395.00;;;7.20
18219;BMP180;9234;49.344;11.120;2023-04-15T03:07:49;96396.00;;;7.20
18219;BMP180;9234;49.344;11.120;2023-04-15T03:10:18;96396.00;;;7.20
18219;BMP180;9234;49.344;11.120;2023-04-15T03:12:46;96388.00;;;7.20
18219;BMP180;9234;49.344;11.120;2023-04-15T03:15:18;96390.00;;;7.30
18219;BMP180;9234;49.344;11.120;2023-04-15T03:17:49;96395.00;;;7.30
18219;BMP180;9234;49.344;11.120;2023-04-15T03:20:19;96393.00;;;7.30
18219;BMP180;9234;49.344;11.120;2023-04-15T03:22:48;96395.00;;;7.30
18219;BMP180;9234;49.344;11.120;2023-04-15T03:25:18;96393.00;;;7.30
18219;BMP180;9234;49.344;11.120;2023-04-15T03:27:46;96391.00;;;7.30
18219;BMP180;9234;49.344;11.120;2023-04-15T03:30:15;96387.00;;;7.30
18219;BMP180;9234;49.344;11.120;2023-04-15T03:32:44;96403.00;;;7.30
18219;BMP180;9234;49.344;11.120;2023-04-15T03:35:13;96392.00;;;7.30
18219;BMP180;9234;49.344;11.120;2023-04-15T03:37:42;96389.00;;;7.30
18219;BMP180;9234;49.344;11.120;2023-04-15T03:40:11;96393.00;;;7.30
18219;BMP180;9234;49.344;11.120;2023-04-15T03:42:40;96392.00;;;7.30
18219;BMP180;9234;49.344;11.120;2023-04-15T03:45:09;96391.00;;;7.30
18219;BMP180;9234;49.344;11.120;2023-04-15T03:47:38;96402.00;;;7.30
18219;BMP180;9234;49.344;11.120;2023-04-15T03:50:07;96394.00;;;7.30
18219;BMP180;9234;49.344;11.120;2023-04-15T03:52:35;96395.00;;;7.30
18219;BMP180;9234;49.344;11.120;2023-04-15T03:55:06;96384.00;;;7.30
18219;BMP180;9234;49.344;11.120;2023-04-15T03:57:34;96400.00;;;7.30
18219;BMP180;9234;49.344;11.120;2023-04-15T04:00:07;96381.00;;;7.30
18219;BMP180;9234;49.344;11.120;2023-04-15T04:02:39;96392.00;;;7.30
18219;BMP180;9234;49.344;11.120;2023-04-15T04:05:08;96389.00;;;7.30
18219;BMP180;9234;49.344;11.120;2023-04-15T04:07:36;96408.00;;;7.30
18219;BMP180;9234;49.344;11.120;2023-04-15T04:10:07;96404.00;;;7.30
18219;BMP180;9234;49.344;11.120;2023-04-15T04:12:35;96390.00;;;7.30
18219;BMP180;9234;49.344;11.120;2023-04-15T04:15:05;96392.00;;;7.30
18219;BMP180;9234;49.344;11.120;2023-04-15T04:17:33;96397.00;;;7.40
18219;BMP180;9234;49.344;11.120;2023-04-15T04:20:02;96404.00;;;7.30
18219;BMP180;9234;49.344;11.120;2023-04-15T04:22:36;96399.00;;;7.40
18219;BMP180;9234;49.344;11.120;2023-04-15T04:25:07;96397.00;;;7.40
18219;BMP180;9234;49.344;11.120;2023-04-15T04:27:36;96402.00;;;7.40
18219;BMP180;9234;49.344;11.120;2023-04-15T04:30:06;96396.00;;;7.40
18219;BMP180;9234;49.344;11.120;2023-04-15T04:32:34;96397.00;;;7.40
18219;BMP180;9234;49.344;11.120;2023-04-15T04:35:03;96416.00;;;7.40
18219;BMP180;9234;49.344;11.120;2023-04-15T04:37:31;96415.00;;;7.40
18219;BMP180;9234;49.344;11.120;2023-04-15T04:39:59;96401.00;;;7.40
18219;BMP180;9234;49.344;11.120;2023-04-15T04:42:29;96413.00;;;7.40
18219;BMP180;9234;49.344;11.120;2023-04-15T04:44:57;96402.00;;;7.40
18219;BMP180;9234;49.344;11.120;2023-04-15T04:47:25;96415.00;;;7.40
18219;BMP180;9234;49.344;11.120;2023-04-15T04:49:53;96411.00;;;7.50
18219;BMP180;9234;49.344;11.120;2023-04-15T04:52:22;96402.00;;;7.50
18219;BMP180;9234;49.344;11.120;2023-04-15T04:54:50;96406.00;;;7.50
18219;BMP180;9234;49.344;11.120;2023-04-15T04:57:18;96408.00;;;7.50
18219;BMP180;9234;49.344;11.120;2023-04-15T04:59:48;96402.00;;;7.50
18219;BMP180;9234;49.344;11.120;2023-04-15T05:02:16;96408.00;;;7.50
18219;BMP180;9234;49.344;11.120;2023-04-15T05:04:44;96417.00;;;7.50
18219;BMP180;9234;49.344;11.120;2023-04-15T05:07:12;96410.00;;;7.60
18219;BMP180;9234;49.344;11.120;2023-04-15T05:09:41;96415.00;;;7.60
18219;BMP180;9234;49.344;11.120;2023-04-15T05:12:09;96417.00;;;7.70
18219;BMP180;9234;49.344;11.120;2023-04-15T05:14:41;96410.00;;;7.70
18219;BMP180;9234;49.344;11.120;2023-04-15T05:17:10;96411.00;;;7.70
18219;BMP180;9234;49.344;11.120;2023-04-15T05:19:38;96404.00;;;7.80
18219;BMP180;9234;49.344;11.120;2023-04-15T05:22:07;96424.00;;;7.90
18219;BMP180;9234;49.344;11.120;2023-04-15T05:24:35;96408.00;;;7.90
18219;BMP180;9234;49.344;11.120;2023-04-15T05:27:03;96416.00;;;7.90
18219;BMP180;9234;49.344;11.120;2023-04-15T05:29:32;96420.00;;;8.00
18219;BMP180;9234;49.344;11.120;2023-04-15T05:32:00;96432.00;;;8.00
18219;BMP180;9234;49.344;11.120;2023-04-15T05:34:29;96433.00;;;8.10
18219;BMP180;9234;49.344;11.120;2023-04-15T05:36:57;96425.00;;;8.10
18219;BMP180;9234;49.344;11.120;2023-04-15T05:39:26;96423.00;;;8.20
18219;BMP180;9234;49.344;11.120;2023-04-15T05:41:54;96432.00;;;8.20
18219;BMP180;9234;49.344;11.120;2023-04-15T05:44:23;96427.00;;;8.30
18219;BMP180;9234;49.344;11.120;2023-04-15T05:46:51;96431.00;;;8.40
18219;BMP180;9234;49.344;11.120;2023-04-15T05:49:20;96433.00;;;8.50
18219;BMP180;9234;49.344;11.120;2023-04-15T05:51:49;96433.00;;;8.50
18219;BMP180;9234;49.344;11.120;2023-04-15T05:54:18;96436.00;;;8.60
18219;BMP180;9234;49.344;11.120;2023-04-15T05:56:48;96441.00;;;8.70
18219;BMP180;9234;49.344;11.120;2023-04-15T05:59:16;96435.00;;;8.80
18219;BMP180;9234;49.344;11.120;2023-04-15T06:01:44;96447.00;;;8.90
18219;BMP180;9234;49.344;11.120;2023-04-15T06:04:13;96447.00;;;8.90
18219;BMP180;9234;49.344;11.120;2023-04-15T06:06:41;96445.00;;;9.00
18219;BMP180;9234;49.344;11.120;2023-04-15T06:09:10;96436.00;;;9.00
18219;BMP180;9234;49.344;11.120;2023-04-15T06:11:39;96432.00;;;9.00
18219;BMP180;9234;49.344;11.120;2023-04-15T06:14:07;96456.00;;;9.00
18219;BMP180;9234;49.344;11.120;2023-04-15T06:16:36;96448.00;;;9.10
18219;BMP180;9234;49.344;11.120;2023-04-15T06:19:04;96440.00;;;9.00
18219;BMP180;9234;49.344;11.120;2023-04-15T06:21:32;96434.00;;;9.10
18219;BMP180;9234;49.344;11.120;2023-04-15T06:24:01;96439.00;;;9.10
18219;BMP180;9234;49.344;11.120;2023-04-15T06:26:31;96446.00;;;9.00
18219;BMP180;9234;49.344;11.120;2023-04-15T06:28:59;96443.00;;;9.10
18219;BMP180;9234;49.344;11.120;2023-04-15T06:31:28;96442.00;;;9.10
18219;BMP180;9234;49.344;11.120;2023-04-15T06:33:56;96442.00;;;9.20
18219;BMP180;9234;49.344;11.120;2023-04-15T06:36:25;96447.00;;;9.30
18219;BMP180;9234;49.344;11.120;2023-04-15T06:38:53;96443.00;;;9.40
18219;BMP180;9234;49.344;11.120;2023-04-15T06:41:22;96449.00;;;9.50
18219;BMP180;9234;49.344;11.120;2023-04-15T06:43:52;96446.00;;;9.60
18219;BMP180;9234;49.344;11.120;2023-04-15T06:46:20;96451.00;;;9.70
18219;BMP180;9234;49.344;11.120;2023-04-15T06:48:49;96437.00;;;9.70
18219;BMP180;9234;49.344;11.120;2023-04-15T06:51:18;96442.00;;;9.70
18219;BMP180;9234;49.344;11.120;2023-04-15T06:53:46;96432.00;;;9.70
18219;BMP180;9234;49.344;11.120;2023-04-15T06:56:14;96447.00;;;9.80
18219;BMP180;9234;49.344;11.120;2023-04-15T06:58:42;96446.00;;;9.90
18219;BMP180;9234;49.344;11.120;2023-04-15T07:01:12;96436.00;;;10.00
18219;BMP180;9234;49.344;11.120;2023-04-15T07:03:41;96447.00;;;10.10
18219;BMP180;9234;49.344;11.120;2023-04-15T07:06:09;96454.00;;;10.20
18219;BMP180;9234;49.344;11.120;2023-04-15T07:08:37;96442.00;;;10.30
18219;BMP180;9234;49.344;11.120;2023-04-15T07:11:06;96457.00;;;10.30
18219;BMP180;9234;49.344;11.120;2023-04-15T07:13:34;96443.00;;;10.30
18219;BMP180;9234;49.344;11.120;2023-04-15T07:16:04;96455.00;;;10.30
18219;BMP180;9234;49.344;11.120;2023-04-15T07:18:33;96443.00;;;10.40
18219;BMP180;9234;49.344;11.120;2023-04-15T07:21:02;96439.00;;;10.40
18219;BMP180;9234;49.344;11.120;2023-04-15T07:23:30;96451.00;;;10.40
18219;BMP180;9234;49.344;11.120;2023-04-15T07:25:58;96440.00;;;10.40
18219;BMP180;9234;49.344;11.120;2023-04-15T07:28:27;96462.00;;;10.50
18219;BMP180;9234;49.344;11.120;2023-04-15T07:30:55;96456.00;;;10.50
18219;BMP180;9234;49.344;11.120;2023-04-15T07:33:24;96463.00;;;10.50
18219;BMP180;9234;49.344;11.120;2023-04-15T07:35:53;96453.00;;;10.60
18219;BMP180;9234;49.344;11.120;2023-04-15T07:38:22;96451.00;;;10.60
18219;BMP180;9234;49.344;11.120;2023-04-15T07:40:50;96446.00;;;10.70
18219;BMP180;9234;49.344;11.120;2023-04-15T07:43:18;96444.00;;;10.80
18219;BMP180;9234;49.344;11.120;2023-04-15T07:45:47;96448.00;;;10.90
18219;BMP180;9234;49.344;11.120;2023-04-15T07:48:15;96452.00;;;11.00
18219;BMP180;9234;49.344;11.120;2023-04-15T07:50:43;96451.00;;;11.10
18219;BMP180;9234;49.344;11.120;2023-04-15T07:53:13;96438.00;;;11.20
18219;BMP180;9234;49.344;11.120;2023-04-15T07:55:41;96445.00;;;11.20
18219;BMP180;9234;49.344;11.120;2023-04-15T07:58:09;96449.00;;;11.30
18219;BMP180;9234;49.344;11.120;2023-04-15T08:00:37;96457.00;;;11.30
18219;BMP180;9234;49.344;11.120;2023-04-15T08:03:06;96467.00;;;11.40
18219;BMP180;9234;49.344;11.120;2023-04-15T08:05:34;96443.00;;;11.40
18219;BMP180;9234;49.344;11.120;2023-04-15T08:08:03;96452.00;;;11.30
18219;BMP180;9234;49.344;11.120;2023-04-15T08:10:32;96446.00;;;11.20
18219;BMP180;9234;49.344;11.120;2023-04-15T08:13:01;96464.00;;;11.20
18219;BMP180;9234;49.344;11.120;2023-04-15T08:15:29;96461.00;;;11.10
18219;BMP180;9234;49.344;11.120;2023-04-15T08:17:58;96454.00;;;11.10
18219;BMP180;9234;49.344;11.120;2023-04-15T08:20:27;96472.00;;;11.20
18219;BMP180;9234;49.344;11.120;2023-04-15T08:22:55;96466.00;;;11.20
18219;BMP180;9234;49.344;11.120;2023-04-15T08:25:24;96458.00;;;11.30
18219;BMP180;9234;49.344;11.120;2023-04-15T08:27:56;96460.00;;;11.40
18219;BMP180;9234;49.344;11.120;2023-04-15T08:30:24;96474.00;;;11.50
18219;BMP180;9234;49.344;11.120;2023-04-15T08:32:52;96477.00;;;11.60
18219;BMP180;9234;49.344;11.120;2023-04-15T08:35:21;96457.00;;;11.70
18219;BMP180;9234;49.344;11.120;2023-04-15T08:37:49;96457.00;;;11.70
18219;BMP180;9234;49.344;11.120;2023-04-15T08:40:17;96461.00;;;11.80
18219;BMP180;9234;49.344;11.120;2023-04-15T08:42:50;96458.00;;;11.80
18219;BMP180;9234;49.344;11.120;2023-04-15T08:45:22;96462.00;;;11.80
18219;BMP180;9234;49.344;11.120;2023-04-15T08:47:55;96461.00;;;11.90
18219;BMP180;9234;49.344;11.120;2023-04-15T08:50:25;96469.00;;;11.80
18219;BMP180;9234;49.344;11.120;2023-04-15T08:52:58;96470.00;;;11.60
18219;BMP180;9234;49.344;11.120;2023-04-15T08:55:31;96476.00;;;11.50
18219;BMP180;9234;49.344;11.120;2023-04-15T08:58:02;96489.00;;;11.30
18219;BMP180;9234;49.344;11.120;2023-04-15T09:00:32;96478.00;;;11.10
18219;BMP180;9234;49.344;11.120;2023-04-15T09:03:01;96486.00;;;10.90
18219;BMP180;9234;49.344;11.120;2023-04-15T09:05:31;96488.00;;;10.70
18219;BMP180;9234;49.344;11.120;2023-04-15T09:08:00;96487.00;;;10.60
18219;BMP180;9234;49.344;11.120;2023-04-15T09:10:29;96488.00;;;10.60
18219;BMP180;9234;49.344;11.120;2023-04-15T09:12:58;96490.00;;;10.70
18219;BMP180;9234;49.344;11.120;2023-04-15T09:15:27;96480.00;;;10.80
18219;BMP180;9234;49.344;11.120;2023-04-15T09:17:57;96490.00;;;10.90
18219;BMP180;9234;49.344;11.120;2023-04-15T09:20:26;96491.00;;;10.90
18219;BMP180;9234;49.344;11.120;2023-04-15T09:22:54;96487.00;;;10.90
18219;BMP180;9234;49.344;11.120;2023-04-15T09:25:28;96486.00;;;11.00
18219;BMP180;9234;49.344;11.120;2023-04-15T09:28:01;96508.00;;;11.10
18219;BMP180;9234;49.344;11.120;2023-04-15T09:30:30;96489.00;;;11.20
18219;BMP180;9234;49.344;11.120;2023-04-15T09:33:01;96495.00;;;11.30
18219;BMP180;9234;49.344;11.120;2023-04-15T09:35:30;96498.00;;;11.40
18219;BMP180;9234;49.344;11.120;2023-04-15T09:38:04;96502.00;;;11.50
18219;BMP180;9234;49.344;11.120;2023-04-15T09:40:35;96499.00;;;11.50
18219;BMP180;9234;49.344;11.120;2023-04-15T09:43:05;96506.00;;;11.40
18219;BMP180;9234;49.344;11.120;2023-04-15T09:45:35;96511.00;;;11.40
18219;BMP180;9234;49.344;11.120;2023-04-15T09:48:17;96511.00;;;11.30
18219;BMP180;9234;49.344;11.120;2023-04-15T09:50:47;96519.00;;;11.30
18219;BMP180;9234;49.344;11.120;2023-04-15T09:53:17;96524.00;;;11.20
18219;BMP180;9234;49.344;11.120;2023-04-15T09:55:52;96518.00;;;11.20
18219;BMP180;9234;49.344;11.120;2023-04-15T09:58:22;96517.00;;;11.10
18219;BMP180;9234;49.344;11.120;2023-04-15T10:00:52;96526.00;;;11.20
18219;BMP180;9234;49.344;11.120;2023-04-15T10:03:24;96530.00;;;11.20
18219;BMP180;9234;49.344;11.120;2023-04-15T10:05:55;96522.00;;;11.20
18219;BMP180;9234;49.344;11.120;2023-04-15T10:08:26;96523.00;;;11.20
18219;BMP180;9234;49.344;11.120;2023-04-15T10:10:55;96535.00;;;11.20
18219;BMP180;9234;49.344;11.120;2023-04-15T10:13:25;96537.00;;;11.30
18219;BMP180;9234;49.344;11.120;2023-04-15T10:15:58;96536.00;;;11.30
18219;BMP180;9234;49.344;11.120;2023-04-15T10:18:31;96536.00;;;11.20
18219;BMP180;9234;49.344;11.120;2023-04-15T10:21:01;96541.00;;;11.20
18219;BMP180;9234;49.344;11.120;2023-04-15T10:23:31;96544.00;;;11.20
18219;BMP180;9234;49.344;11.120;2023-04-15T10:25:59;96529.00;;;11.00
18219;BMP180;9234;49.344;11.120;2023-04-15T10:28:28;96542.00;;;10.90
18219;BMP180;9234;49.344;11.120;2023-04-15T10:30:57;96539.00;;;10.80
18219;BMP180;9234;49.344;11.120;2023-04-15T10:33:29;96552.00;;;10.90
18219;BMP180;9234;49.344;11.120;2023-04-15T10:35:58;96549.00;;;10.80
18219;BMP180;9234;49.344;11.120;2023-04-15T10:38:35;96553.00;;;10.80
18219;BMP180;9234;49.344;11.120;2023-04-15T10:41:17;96534.00;;;10.80
18219;BMP180;9234;49.344;11.120;2023-04-15T10:43:50;96531.00;;;10.80
18219;BMP180;9234;49.344;11.120;2023-04-15T10:46:21;96543.00;;;10.90
18219;BMP180;9234;49.344;11.120;2023-04-15T10:48:53;96553.00;;;10.90
18219;BMP180;9234;49.344;11.120;2023-04-15T10:51:30;96547.00;;;11.00
18219;BMP180;9234;49.344;11.120;2023-04-15T10:53:59;96537.00;;;11.10
18219;BMP180;9234;49.344;11.120;2023-04-15T10:56:28;96528.00;;;11.00
18219;BMP180;9234;49.344;11.120;2023-04-15T10:58:59;96532.00;;;11.00
18219;BMP180;9234;49.344;11.120;2023-04-15T11:01:51;96534.00;;;11.00
18219;BMP180;9234;49.344;11.120;2023-04-15T11:04:53;96533.00;;;11.00
18219;BMP180;9234;49.344;11.120;2023-04-15T11:07:34;96545.00;;;11.00
18219;BMP180;9234;49.344;11.120;2023-04-15T11:10:03;96554.00;;;11.00
18219;BMP180;9234;49.344;11.120;2023-04-15T11:12:34;96543.00;;;11.10
18219;BMP180;9234;49.344;11.120;2023-04-15T11:15:28;96562.00;;;11.20
18219;BMP180;9234;49.344;11.120;2023-04-15T11:17:58;96552.00;;;11.20
18219;BMP180;9234;49.344;11.120;2023-04-15T11:20:29;96553.00;;;11.20
18219;BMP180;9234;49.344;11.120;2023-04-15T11:22:59;96566.00;;;11.20
18219;BMP180;9234;49.344;11.120;2023-04-15T11:25:44;96545.00;;;11.30
18219;BMP180;9234;49.344;11.120;2023-04-15T11:28:13;96552.00;;;11.40
18219;BMP180;9234;49.344;11.120;2023-04-15T11:30:42;96555.00;;;11.40
18219;BMP180;9234;49.344;11.120;2023-04-15T11:33:11;96562.00;;;11.30
18219;BMP180;9234;49.344;11.120;2023-04-15T11:35:41;96574.00;;;11.20
18219;BMP180;9234;49.344;11.120;2023-04-15T11:38:12;96570.00;;;11.10
18219;BMP180;9234;49.344;11.120;2023-04-15T11:40:42;96573.00;;;11.20
18219;BMP180;9234;49.344;11.120;2023-04-15T11:43:15;96573.00;;;11.20
18219;BMP180;9234;49.344;11.120;2023-04-15T11:45:50;96567.00;;;11.30
18219;BMP180;9234;49.344;11.120;2023-04-15T11:48:21;96574.00;;;11.30
18219;BMP180;9234;49.344;11.120;2023-04-15T11:50:56;96584.00;;;11.20
18219;BMP180;9234;49.344;11.120;2023-04-15T11:53:36;96594.00;;;11.20
18219;BMP180;9234;49.344;11.120;2023-04-15T11:56:07;96585.00;;;11.00
18219;BMP180;9234;49.344;11.120;2023-04-15T11:58:37;96577.00;;;11.00
18219;BMP180;9234;49.344;11.120;2023-04-15T12:01:06;96570.00;;;11.00
18219;BMP180;9234;49.344;11.120;2023-04-15T12:03:39;96576.00;;;10.90
18219;BMP180;9234;49.344;11.120;2023-04-15T12:06:15;96587.00;;;10.90
18219;BMP180;9234;49.344;11.120;2023-04-15T12:08:57;96581.00;;;10.90
18219;BMP180;9234;49.344;11.120;2023-04-15T12:11:35;96577.00;;;10.90
18219;BMP180;9234;49.344;11.120;2023-04-15T12:14:08;96582.00;;;10.80
18219;BMP180;9234;49.344;11.120;2023-04-15T12:16:41;96600.00;;;10.90
18219;BMP180;9234;49.344;11.120;2023-04-15T12:19:22;96582.00;;;10.80
18219;BMP180;9234;49.344;11.120;2023-04-15T12:21:56;96586.00;;;10.90
18219;BMP180;9234;49.344;11.120;2023-04-15T12:24:30;96598.00;;;10.90
18219;BMP180;9234;49.344;11.120;2023-04-15T12:27:03;96597.00;;;10.90
18219;BMP180;9234;49.344;11.120;2023-04-15T12:29:33;96597.00;;;11.00
18219;BMP180;9234;49.344;11.120;2023-04-15T12:32:06;96609.00;;;11.10
18219;BMP180;9234;49.344;11.120;2023-04-15T12:34:36;96614.00;;;11.20
18219;BMP180;9234;49.344;11.120;2023-04-15T12:37:08;96616.00;;;11.20
18219;BMP180;9234;49.344;11.120;2023-04-15T12:39:40;96614.00;;;11.10
18219;BMP180;9234;49.344;11.120;2023-04-15T12:42:09;96616.00;;;11.10
18219;BMP180;9234;49.344;11.120;2023-04-15T12:44:38;96629.00;;;11.10
18219;BMP180;9234;49.344;11.120;2023-04-15T12:47:08;96635.00;;;11.10
18219;BMP180;9234;49.344;11.120;2023-04-15T12:49:37;96619.00;;;11.00
18219;BMP180;9234;49.344;11.120;2023-04-15T12:52:07;96634.00;;;10.90
18219;BMP180;9234;49.344;11.120;2023-04-15T12:54:35;96630.00;;;10.80
18219;BMP180;9234;49.344;11.120;2023-04-15T12:57:04;96632.00;;;10.80
18219;BMP180;9234;49.344;11.120;2023-04-15T12:59:33;96627.00;;;10.80
18219;BMP180;9234;49.344;11.120;2023-04-15T13:02:03;96626.00;;;10.80
18219;BMP180;9234;49.344;11.120;2023-04-15T13:04:32;96640.00;;;10.70
18219;BMP180;9234;49.344;11.120;2023-04-15T13:07:01;96640.00;;;10.70
18219;BMP180;9234;49.344;11.120;2023-04-15T13:09:31;96634.00;;;10.70
18219;BMP180;9234;49.344;11.120;2023-04-15T13:12:00;96636.00;;;10.70
18219;BMP180;9234;49.344;11.120;2023-04-15T13:14:30;96637.00;;;10.60
18219;BMP180;9234;49.344;11.120;2023-04-15T13:16:58;96639.00;;;10.70
18219;BMP180;9234;49.344;11.120;2023-04-15T13:19:27;96645.00;;;10.70
18219;BMP180;9234;49.344;11.120;2023-04-15T13:21:55;96634.00;;;10.80
18219;BMP180;9234;49.344;11.120;2023-04-15T13:24:23;96635.00;;;10.80
18219;BMP180;9234;49.344;11.120;2023-04-15T13:26:54;96647.00;;;10.80
18219;BMP180;9234;49.344;11.120;2023-04-15T13:29:24;96653.00;;;10.90
18219;BMP180;9234;49.344;11.120;2023-04-15T13:31:53;96655.00;;;10.90
18219;BMP180;9234;49.344;11.120;2023-04-15T13:34:22;96659.00;;;10.90
18219;BMP180;9234;49.344;11.120;2023-04-15T13:36:50;96659.00;;;10.90
18219;BMP180;9234;49.344;11.120;2023-04-15T13:39:18;96663.00;;;11.00
18219;BMP180;9234;49.344;11.120;2023-04-15T13:41:46;96657.00;;;11.00
18219;BMP180;9234;49.344;11.120;2023-04-15T13:44:16;96662.00;;;11.00
18219;BMP180;9234;49.344;11.120;2023-04-15T13:46:47;96679.00;;;11.00
18219;BMP180;9234;49.344;11.120;2023-04-15T13:49:15;96661.00;;;11.00
18219;BMP180;9234;49.344;11.120;2023-04-15T13:51:44;96666.00;;;10.90
18219;BMP180;9234;49.344;11.120;2023-04-15T13:54:12;96673.00;;;10.90
18219;BMP180;9234;49.344;11.120;2023-04-15T13:56:40;96668.00;;;10.80
18219;BMP180;9234;49.344;11.120;2023-04-15T13:59:08;96669.00;;;10.80
18219;BMP180;9234;49.344;11.120;2023-04-15T14:01:38;96678.00;;;10.80
18219;BMP180;9234;49.344;11.120;2023-04-15T14:04:07;96680.00;;;10.80
18219;BMP180;9234;49.344;11.120;2023-04-15T14:06:36;96677.00;;;10.90
18219;BMP180;9234;49.344;11.120;2023-04-15T14:09:04;96682.00;;;10.90
18219;BMP180;9234;49.344;11.120;2023-04-15T14:11:33;96674.00;;;10.90
18219;BMP180;9234;49.344;11.120;2023-04-15T14:14:02;96691.00;;;11.00
18219;BMP180;9234;49.344;11.120;2023-04-15T14:16:32;96685.00;;;11.00
18219;BMP180;9234;49.344;11.120;2023-04-15T14:19:02;96687.00;;;11.00
18219;BMP180;9234;49.344;11.120;2023-04-15T14:21:30;96692.00;;;11.00
18219;BMP180;9234;49.344;11.120;2023-04-15T14:23:59;96687.00;;;11.00
18219;BMP180;9234;49.344;11.120;2023-04-15T14:26:27;96713.00;;;11.00
18219;BMP180;9234;49.344;11.120;2023-04-15T14:28:56;96698.00;;;10.90